Fifth Ward, Louisiana
Current Conditions -  °F | °C
As of 1:53 AM on Saturday 29 Nov 2014 (Local Time) from KESF Reporting Station
Clear Clear  
Wind Chill: 45°   Ceiling: Unl
Heat Index: 47°   Visibility: 10mi
Dew Point: 46°   Wind: 5mph
Humidity: 97%   Direction: 210°SSW
Pressure: 30.15"   Gusts: NA
Location:  31.175°N, 91.9985°W
Report Text: KESF 290753Z AUTO 21004KT 10SM CLR 08/08 A3015 RMK AO2 SLP207 T00830078
Loading
Personal Weather Stations






























Interactive Weather Map New forecast layout! Learn more

10-Day Weather Forecast

Advertisements
Track Severe Weather on mobile